sensor_id;sensor_type;location;lat;lon;timestamp;P1;durP1;ratioP1;P2;durP2;ratioP2
34019;SDS011;20895;51.034;3.742;2023-11-21T00:00:45;24.17;;;17.90;;
34019;SDS011;20895;51.034;3.742;2023-11-21T00:03:10;25.42;;;18.67;;
34019;SDS011;20895;51.034;3.742;2023-11-21T00:05:36;21.42;;;17.60;;
34019;SDS011;20895;51.034;3.742;2023-11-21T00:08:01;27.20;;;20.10;;
34019;SDS011;20895;51.034;3.742;2023-11-21T00:10:27;28.20;;;18.33;;
34019;SDS011;20895;51.034;3.742;2023-11-21T00:12:53;26.35;;;17.70;;
34019;SDS011;20895;51.034;3.742;2023-11-21T00:15:20;26.48;;;18.88;;
34019;SDS011;20895;51.034;3.742;2023-11-21T00:17:45;27.20;;;19.00;;
34019;SDS011;20895;51.034;3.742;2023-11-21T00:20:11;23.40;;;18.63;;
34019;SDS011;20895;51.034;3.742;2023-11-21T00:22:38;24.35;;;17.00;;
34019;SDS011;20895;51.034;3.742;2023-11-21T00:25:05;22.83;;;17.40;;
34019;SDS011;20895;51.034;3.742;2023-11-21T00:27:30;25.98;;;18.23;;
34019;SDS011;20895;51.034;3.742;2023-11-21T00:29:55;25.10;;;16.92;;
34019;SDS011;20895;51.034;3.742;2023-11-21T00:32:21;20.45;;;17.08;;
34019;SDS011;20895;51.034;3.742;2023-11-21T00:34:46;22.05;;;16.55;;
34019;SDS011;20895;51.034;3.742;2023-11-21T00:37:11;21.45;;;17.98;;
34019;SDS011;20895;51.034;3.742;2023-11-21T00:39:36;25.13;;;16.70;;
34019;SDS011;20895;51.034;3.742;2023-11-21T00:42:02;21.23;;;16.27;;
34019;SDS011;20895;51.034;3.742;2023-11-21T00:44:27;21.85;;;17.33;;
34019;SDS011;20895;51.034;3.742;2023-11-21T00:46:52;21.23;;;16.38;;
34019;SDS011;20895;51.034;3.742;2023-11-21T00:49:17;19.35;;;15.95;;
34019;SDS011;20895;51.034;3.742;2023-11-21T00:51:43;20.08;;;15.55;;
34019;SDS011;20895;51.034;3.742;2023-11-21T00:54:08;23.60;;;16.63;;
34019;SDS011;20895;51.034;3.742;2023-11-21T00:56:33;22.35;;;15.27;;
34019;SDS011;20895;51.034;3.742;2023-11-21T00:58:59;21.38;;;15.63;;
34019;SDS011;20895;51.034;3.742;2023-11-21T01:01:24;22.40;;;15.95;;
34019;SDS011;20895;51.034;3.742;2023-11-21T01:03:49;19.50;;;15.35;;
34019;SDS011;20895;51.034;3.742;2023-11-21T01:06:15;23.55;;;15.63;;
34019;SDS011;20895;51.034;3.742;2023-11-21T01:08:40;23.35;;;15.88;;
34019;SDS011;20895;51.034;3.742;2023-11-21T01:11:05;16.98;;;14.13;;
34019;SDS011;20895;51.034;3.742;2023-11-21T01:13:33;21.65;;;14.13;;
34019;SDS011;20895;51.034;3.742;2023-11-21T01:15:58;22.52;;;14.93;;
34019;SDS011;20895;51.034;3.742;2023-11-21T01:18:23;21.02;;;14.30;;
34019;SDS011;20895;51.034;3.742;2023-11-21T01:20:50;20.67;;;15.32;;
34019;SDS011;20895;51.034;3.742;2023-11-21T01:23:17;22.20;;;15.10;;
34019;SDS011;20895;51.034;3.742;2023-11-21T01:25:43;19.95;;;14.07;;
34019;SDS011;20895;51.034;3.742;2023-11-21T01:28:08;19.85;;;13.93;;
34019;SDS011;20895;51.034;3.742;2023-11-21T01:30:33;19.55;;;13.95;;
34019;SDS011;20895;51.034;3.742;2023-11-21T01:32:58;19.95;;;14.05;;
34019;SDS011;20895;51.034;3.742;2023-11-21T01:35:24;18.33;;;13.82;;
34019;SDS011;20895;51.034;3.742;2023-11-21T01:37:49;19.77;;;13.73;;
34019;SDS011;20895;51.034;3.742;2023-11-21T01:40:14;18.50;;;13.52;;
34019;SDS011;20895;51.034;3.742;2023-11-21T01:42:40;16.13;;;13.77;;
34019;SDS011;20895;51.034;3.742;2023-11-21T01:45:05;17.05;;;12.10;;
34019;SDS011;20895;51.034;3.742;2023-11-21T01:47:32;16.67;;;12.30;;
34019;SDS011;20895;51.034;3.742;2023-11-21T01:49:57;21.80;;;13.50;;
34019;SDS011;20895;51.034;3.742;2023-11-21T01:52:23;18.45;;;11.95;;
34019;SDS011;20895;51.034;3.742;2023-11-21T01:54:48;17.40;;;12.60;;
34019;SDS011;20895;51.034;3.742;2023-11-21T01:57:13;15.88;;;11.43;;
34019;SDS011;20895;51.034;3.742;2023-11-21T01:59:40;18.85;;;12.75;;
34019;SDS011;20895;51.034;3.742;2023-11-21T02:02:07;18.90;;;13.50;;
34019;SDS011;20895;51.034;3.742;2023-11-21T02:04:33;19.00;;;12.10;;
34019;SDS011;20895;51.034;3.742;2023-11-21T02:06:58;20.45;;;12.68;;
34019;SDS011;20895;51.034;3.742;2023-11-21T02:09:25;21.00;;;12.57;;
34019;SDS011;20895;51.034;3.742;2023-11-21T02:11:50;22.33;;;15.05;;
34019;SDS011;20895;51.034;3.742;2023-11-21T02:14:16;19.92;;;12.63;;
34019;SDS011;20895;51.034;3.742;2023-11-21T02:16:45;20.38;;;13.38;;
34019;SDS011;20895;51.034;3.742;2023-11-21T02:19:12;17.08;;;13.00;;
34019;SDS011;20895;51.034;3.742;2023-11-21T02:21:43;17.45;;;12.77;;
34019;SDS011;20895;51.034;3.742;2023-11-21T02:24:10;19.63;;;12.60;;
34019;SDS011;20895;51.034;3.742;2023-11-21T02:26:38;22.52;;;13.88;;
34019;SDS011;20895;51.034;3.742;2023-11-21T02:29:03;20.73;;;11.95;;
34019;SDS011;20895;51.034;3.742;2023-11-21T02:31:29;20.75;;;11.93;;
34019;SDS011;20895;51.034;3.742;2023-11-21T02:33:55;22.67;;;12.55;;
34019;SDS011;20895;51.034;3.742;2023-11-21T02:36:20;20.40;;;12.35;;
34019;SDS011;20895;51.034;3.742;2023-11-21T02:38:46;19.23;;;13.15;;
34019;SDS011;20895;51.034;3.742;2023-11-21T02:41:12;18.80;;;11.48;;
34019;SDS011;20895;51.034;3.742;2023-11-21T02:43:37;16.30;;;10.80;;
34019;SDS011;20895;51.034;3.742;2023-11-21T02:46:03;23.90;;;12.82;;
34019;SDS011;20895;51.034;3.742;2023-11-21T02:48:28;15.23;;;11.45;;
34019;SDS011;20895;51.034;3.742;2023-11-21T02:50:55;17.42;;;11.93;;
34019;SDS011;20895;51.034;3.742;2023-11-21T02:53:21;17.25;;;10.43;;
34019;SDS011;20895;51.034;3.742;2023-11-21T02:55:46;16.92;;;12.65;;
34019;SDS011;20895;51.034;3.742;2023-11-21T02:58:11;19.33;;;11.93;;
34019;SDS011;20895;51.034;3.742;2023-11-21T03:00:36;19.85;;;10.60;;
34019;SDS011;20895;51.034;3.742;2023-11-21T03:03:02;17.40;;;11.00;;
34019;SDS011;20895;51.034;3.742;2023-11-21T03:05:27;13.57;;;10.43;;
34019;SDS011;20895;51.034;3.742;2023-11-21T03:07:53;15.93;;;11.52;;
34019;SDS011;20895;51.034;3.742;2023-11-21T03:10:19;15.98;;;11.02;;
34019;SDS011;20895;51.034;3.742;2023-11-21T03:12:44;18.38;;;11.73;;
34019;SDS011;20895;51.034;3.742;2023-11-21T03:15:09;15.13;;;10.80;;
34019;SDS011;20895;51.034;3.742;2023-11-21T03:17:35;14.85;;;10.85;;
34019;SDS011;20895;51.034;3.742;2023-11-21T03:20:00;15.95;;;10.50;;
34019;SDS011;20895;51.034;3.742;2023-11-21T03:22:25;19.50;;;12.95;;
34019;SDS011;20895;51.034;3.742;2023-11-21T03:24:51;19.02;;;12.13;;
34019;SDS011;20895;51.034;3.742;2023-11-21T03:27:16;17.35;;;10.77;;
34019;SDS011;20895;51.034;3.742;2023-11-21T03:29:41;18.38;;;11.25;;
34019;SDS011;20895;51.034;3.742;2023-11-21T03:32:07;14.55;;;10.77;;
34019;SDS011;20895;51.034;3.742;2023-11-21T03:34:32;14.15;;;10.80;;
34019;SDS011;20895;51.034;3.742;2023-11-21T03:36:57;20.83;;;13.57;;
34019;SDS011;20895;51.034;3.742;2023-11-21T03:39:23;22.08;;;12.70;;
34019;SDS011;20895;51.034;3.742;2023-11-21T03:41:50;19.35;;;11.02;;
34019;SDS011;20895;51.034;3.742;2023-11-21T03:44:16;14.35;;;11.00;;
34019;SDS011;20895;51.034;3.742;2023-11-21T03:46:42;18.73;;;11.73;;
34019;SDS011;20895;51.034;3.742;2023-11-21T03:49:08;17.27;;;11.73;;
34019;SDS011;20895;51.034;3.742;2023-11-21T03:51:33;22.35;;;11.77;;
34019;SDS011;20895;51.034;3.742;2023-11-21T03:53:59;24.73;;;12.38;;
34019;SDS011;20895;51.034;3.742;2023-11-21T03:56:24;15.85;;;11.20;;
34019;SDS011;20895;51.034;3.742;2023-11-21T03:58:49;21.65;;;12.63;;
34019;SDS011;20895;51.034;3.742;2023-11-21T04:01:21;15.38;;;11.05;;
34019;SDS011;20895;51.034;3.742;2023-11-21T04:03:47;24.75;;;12.13;;
34019;SDS011;20895;51.034;3.742;2023-11-21T04:06:12;16.13;;;11.18;;
34019;SDS011;20895;51.034;3.742;2023-11-21T04:08:37;16.27;;;11.65;;
34019;SDS011;20895;51.034;3.742;2023-11-21T04:11:02;19.08;;;12.30;;
34019;SDS011;20895;51.034;3.742;2023-11-21T04:13:27;16.85;;;11.15;;
34019;SDS011;20895;51.034;3.742;2023-11-21T04:15:53;15.00;;;10.23;;
34019;SDS011;20895;51.034;3.742;2023-11-21T04:18:18;15.40;;;10.25;;
34019;SDS011;20895;51.034;3.742;2023-11-21T04:20:44;21.42;;;11.27;;
34019;SDS011;20895;51.034;3.742;2023-11-21T04:23:09;15.65;;;11.57;;
34019;SDS011;20895;51.034;3.742;2023-11-21T04:25:35;14.18;;;10.60;;
34019;SDS011;20895;51.034;3.742;2023-11-21T04:28:00;16.92;;;10.60;;
34019;SDS011;20895;51.034;3.742;2023-11-21T04:30:25;31.80;;;13.25;;
34019;SDS011;20895;51.034;3.742;2023-11-21T04:32:52;15.55;;;10.98;;
34019;SDS011;20895;51.034;3.742;2023-11-21T04:35:17;17.08;;;10.35;;
34019;SDS011;20895;51.034;3.742;2023-11-21T04:37:42;15.20;;;10.65;;
34019;SDS011;20895;51.034;3.742;2023-11-21T04:40:08;16.17;;;10.77;;
34019;SDS011;20895;51.034;3.742;2023-11-21T04:42:36;19.77;;;11.15;;
34019;SDS011;20895;51.034;3.742;2023-11-21T04:45:02;15.15;;;10.68;;
34019;SDS011;20895;51.034;3.742;2023-11-21T04:47:32;14.20;;;10.23;;
34019;SDS011;20895;51.034;3.742;2023-11-21T04:49:57;18.08;;;12.57;;
34019;SDS011;20895;51.034;3.742;2023-11-21T04:52:23;16.48;;;10.80;;
34019;SDS011;20895;51.034;3.742;2023-11-21T04:54:48;16.80;;;11.65;;
34019;SDS011;20895;51.034;3.742;2023-11-21T04:57:13;14.43;;;9.77;;
34019;SDS011;20895;51.034;3.742;2023-11-21T04:59:39;17.35;;;11.90;;
34019;SDS011;20895;51.034;3.742;2023-11-21T05:02:04;16.88;;;11.38;;
34019;SDS011;20895;51.034;3.742;2023-11-21T05:04:30;18.88;;;11.50;;
34019;SDS011;20895;51.034;3.742;2023-11-21T05:06:55;20.52;;;11.05;;
34019;SDS011;20895;51.034;3.742;2023-11-21T05:09:20;22.58;;;11.77;;
34019;SDS011;20895;51.034;3.742;2023-11-21T05:11:47;18.90;;;11.77;;
34019;SDS011;20895;51.034;3.742;2023-11-21T05:14:12;14.07;;;10.57;;
34019;SDS011;20895;51.034;3.742;2023-11-21T05:16:39;15.90;;;11.13;;
34019;SDS011;20895;51.034;3.742;2023-11-21T05:19:04;18.58;;;11.55;;
34019;SDS011;20895;51.034;3.742;2023-11-21T05:21:30;19.00;;;11.48;;
34019;SDS011;20895;51.034;3.742;2023-11-21T05:23:58;18.20;;;11.10;;
34019;SDS011;20895;51.034;3.742;2023-11-21T05:26:23;19.90;;;11.40;;
34019;SDS011;20895;51.034;3.742;2023-11-21T05:28:49;18.50;;;11.52;;
34019;SDS011;20895;51.034;3.742;2023-11-21T05:31:15;19.15;;;12.63;;
34019;SDS011;20895;51.034;3.742;2023-11-21T05:33:40;18.77;;;12.55;;
34019;SDS011;20895;51.034;3.742;2023-11-21T05:36:06;18.38;;;12.40;;
34019;SDS011;20895;51.034;3.742;2023-11-21T05:38:32;18.42;;;12.38;;
34019;SDS011;20895;51.034;3.742;2023-11-21T05:40:58;20.98;;;12.65;;
34019;SDS011;20895;51.034;3.742;2023-11-21T05:43:23;16.63;;;12.57;;
34019;SDS011;20895;51.034;3.742;2023-11-21T05:45:48;18.67;;;13.02;;
34019;SDS011;20895;51.034;3.742;2023-11-21T05:48:14;19.25;;;11.93;;
34019;SDS011;20895;51.034;3.742;2023-11-21T05:50:40;28.05;;;14.77;;
34019;SDS011;20895;51.034;3.742;2023-11-21T05:53:06;19.05;;;13.45;;
34019;SDS011;20895;51.034;3.742;2023-11-21T05:55:32;18.48;;;12.52;;
34019;SDS011;20895;51.034;3.742;2023-11-21T05:57:57;17.73;;;13.25;;
34019;SDS011;20895;51.034;3.742;2023-11-21T06:00:22;18.80;;;14.38;;
34019;SDS011;20895;51.034;3.742;2023-11-21T06:02:51;24.17;;;16.30;;
34019;SDS011;20895;51.034;3.742;2023-11-21T06:05:18;18.50;;;13.32;;
34019;SDS011;20895;51.034;3.742;2023-11-21T06:07:44;22.10;;;13.93;;
34019;SDS011;20895;51.034;3.742;2023-11-21T06:10:10;22.48;;;14.38;;
34019;SDS011;20895;51.034;3.742;2023-11-21T06:12:36;19.35;;;14.07;;
34019;SDS011;20895;51.034;3.742;2023-11-21T06:15:02;22.70;;;13.73;;
34019;SDS011;20895;51.034;3.742;2023-11-21T06:17:30;19.75;;;13.82;;
34019;SDS011;20895;51.034;3.742;2023-11-21T06:19:55;18.95;;;14.40;;
34019;SDS011;20895;51.034;3.742;2023-11-21T06:22:20;19.00;;;13.43;;
34019;SDS011;20895;51.034;3.742;2023-11-21T06:24:45;20.58;;;13.40;;
34019;SDS011;20895;51.034;3.742;2023-11-21T06:27:10;20.00;;;14.30;;
34019;SDS011;20895;51.034;3.742;2023-11-21T06:29:36;20.45;;;14.07;;
34019;SDS011;20895;51.034;3.742;2023-11-21T06:32:02;18.27;;;13.20;;
34019;SDS011;20895;51.034;3.742;2023-11-21T06:34:30;19.38;;;13.55;;
34019;SDS011;20895;51.034;3.742;2023-11-21T06:36:55;19.52;;;13.07;;
34019;SDS011;20895;51.034;3.742;2023-11-21T06:39:21;26.95;;;14.45;;
34019;SDS011;20895;51.034;3.742;2023-11-21T06:41:48;19.63;;;11.45;;
34019;SDS011;20895;51.034;3.742;2023-11-21T06:44:13;21.25;;;13.35;;
34019;SDS011;20895;51.034;3.742;2023-11-21T06:46:38;16.27;;;12.13;;
34019;SDS011;20895;51.034;3.742;2023-11-21T06:49:07;20.42;;;12.75;;
34019;SDS011;20895;51.034;3.742;2023-11-21T06:51:32;17.17;;;12.38;;
34019;SDS011;20895;51.034;3.742;2023-11-21T06:53:57;18.55;;;11.43;;
34019;SDS011;20895;51.034;3.742;2023-11-21T06:56:23;19.60;;;12.00;;
34019;SDS011;20895;51.034;3.742;2023-11-21T06:58:48;20.80;;;10.57;;
34019;SDS011;20895;51.034;3.742;2023-11-21T07:01:14;19.67;;;11.25;;
34019;SDS011;20895;51.034;3.742;2023-11-21T07:03:40;16.88;;;10.65;;
34019;SDS011;20895;51.034;3.742;2023-11-21T07:06:06;23.23;;;11.77;;
34019;SDS011;20895;51.034;3.742;2023-11-21T07:08:32;18.35;;;10.20;;
34019;SDS011;20895;51.034;3.742;2023-11-21T07:10:57;20.00;;;12.68;;
34019;SDS011;20895;51.034;3.742;2023-11-21T07:13:22;20.45;;;12.43;;
34019;SDS011;20895;51.034;3.742;2023-11-21T07:15:48;16.92;;;10.68;;
34019;SDS011;20895;51.034;3.742;2023-11-21T07:18:13;20.85;;;11.48;;
34019;SDS011;20895;51.034;3.742;2023-11-21T07:20:39;20.67;;;10.73;;
34019;SDS011;20895;51.034;3.742;2023-11-21T07:23:04;23.35;;;12.05;;
34019;SDS011;20895;51.034;3.742;2023-11-21T07:25:30;19.45;;;12.50;;
34019;SDS011;20895;51.034;3.742;2023-11-21T07:27:56;22.42;;;11.68;;
34019;SDS011;20895;51.034;3.742;2023-11-21T07:30:22;21.50;;;12.45;;
34019;SDS011;20895;51.034;3.742;2023-11-21T07:32:47;22.88;;;12.20;;
34019;SDS011;20895;51.034;3.742;2023-11-21T07:35:13;22.50;;;13.35;;
34019;SDS011;20895;51.034;3.742;2023-11-21T07:37:38;21.70;;;12.48;;
34019;SDS011;20895;51.034;3.742;2023-11-21T07:40:03;20.17;;;12.98;;
34019;SDS011;20895;51.034;3.742;2023-11-21T07:42:29;21.98;;;13.05;;
34019;SDS011;20895;51.034;3.742;2023-11-21T07:44:54;23.60;;;12.40;;
34019;SDS011;20895;51.034;3.742;2023-11-21T07:47:20;18.35;;;11.70;;
34019;SDS011;20895;51.034;3.742;2023-11-21T07:49:45;17.52;;;11.85;;
34019;SDS011;20895;51.034;3.742;2023-11-21T07:52:11;17.73;;;11.23;;
34019;SDS011;20895;51.034;3.742;2023-11-21T07:54:37;16.67;;;11.35;;
34019;SDS011;20895;51.034;3.742;2023-11-21T07:57:03;17.38;;;10.57;;
34019;SDS011;20895;51.034;3.742;2023-11-21T07:59:29;17.10;;;11.35;;
34019;SDS011;20895;51.034;3.742;2023-11-21T08:01:54;18.05;;;10.85;;
34019;SDS011;20895;51.034;3.742;2023-11-21T08:04:20;14.57;;;10.40;;
34019;SDS011;20895;51.034;3.742;2023-11-21T08:06:45;16.25;;;10.52;;
34019;SDS011;20895;51.034;3.742;2023-11-21T08:09:10;18.40;;;11.20;;
34019;SDS011;20895;51.034;3.742;2023-11-21T08:11:37;16.15;;;10.18;;
34019;SDS011;20895;51.034;3.742;2023-11-21T08:14:03;12.65;;;8.88;;
34019;SDS011;20895;51.034;3.742;2023-11-21T08:16:30;11.60;;;8.07;;
34019;SDS011;20895;51.034;3.742;2023-11-21T08:18:55;11.32;;;9.05;;
34019;SDS011;20895;51.034;3.742;2023-11-21T08:21:20;12.32;;;8.30;;
34019;SDS011;20895;51.034;3.742;2023-11-21T08:23:45;12.88;;;8.13;;
34019;SDS011;20895;51.034;3.742;2023-11-21T08:26:11;13.23;;;8.35;;
34019;SDS011;20895;51.034;3.742;2023-11-21T08:28:36;8.18;;;6.78;;
34019;SDS011;20895;51.034;3.742;2023-11-21T08:31:02;11.90;;;10.70;;
34019;SDS011;20895;51.034;3.742;2023-11-21T08:33:27;9.45;;;7.45;;
34019;SDS011;20895;51.034;3.742;2023-11-21T08:35:52;9.70;;;6.90;;
34019;SDS011;20895;51.034;3.742;2023-11-21T08:38:18;9.15;;;7.00;;
34019;SDS011;20895;51.034;3.742;2023-11-21T08:40:43;10.82;;;7.95;;
34019;SDS011;20895;51.034;3.742;2023-11-21T08:43:08;9.15;;;7.28;;
34019;SDS011;20895;51.034;3.742;2023-11-21T08:45:33;9.75;;;8.15;;
34019;SDS011;20895;51.034;3.742;2023-11-21T08:47:59;10.40;;;7.35;;
34019;SDS011;20895;51.034;3.742;2023-11-21T08:50:24;10.05;;;7.35;;
34019;SDS011;20895;51.034;3.742;2023-11-21T08:52:49;10.23;;;7.68;;
34019;SDS011;20895;51.034;3.742;2023-11-21T08:55:16;11.35;;;8.65;;
34019;SDS011;20895;51.034;3.742;2023-11-21T08:57:43;12.20;;;9.18;;
34019;SDS011;20895;51.034;3.742;2023-11-21T09:00:09;10.73;;;7.90;;
34019;SDS011;20895;51.034;3.742;2023-11-21T09:02:36;13.15;;;7.85;;
34019;SDS011;20895;51.034;3.742;2023-11-21T09:05:02;14.50;;;8.45;;
34019;SDS011;20895;51.034;3.742;2023-11-21T09:07:28;13.85;;;8.90;;
34019;SDS011;20895;51.034;3.742;2023-11-21T09:09:53;15.73;;;10.30;;
34019;SDS011;20895;51.034;3.742;2023-11-21T09:12:19;11.45;;;9.45;;
34019;SDS011;20895;51.034;3.742;2023-11-21T09:14:45;28.50;;;11.90;;
34019;SDS011;20895;51.034;3.742;2023-11-21T09:17:10;12.88;;;9.25;;
34019;SDS011;20895;51.034;3.742;2023-11-21T09:19:39;12.68;;;9.45;;
34019;SDS011;20895;51.034;3.742;2023-11-21T09:22:05;12.25;;;9.55;;
34019;SDS011;20895;51.034;3.742;2023-11-21T09:24:31;12.43;;;9.82;;
34019;SDS011;20895;51.034;3.742;2023-11-21T09:26:56;10.73;;;8.48;;
34019;SDS011;20895;51.034;3.742;2023-11-21T09:29:21;11.77;;;7.68;;
34019;SDS011;20895;51.034;3.742;2023-11-21T09:31:47;7.80;;;5.43;;
34019;SDS011;20895;51.034;3.742;2023-11-21T09:34:12;7.88;;;6.35;;
34019;SDS011;20895;51.034;3.742;2023-11-21T09:36:38;7.28;;;4.90;;
34019;SDS011;20895;51.034;3.742;2023-11-21T09:39:04;9.35;;;4.60;;
34019;SDS011;20895;51.034;3.742;2023-11-21T09:41:51;9.00;;;5.10;;
34019;SDS011;20895;51.034;3.742;2023-11-21T09:44:20;8.38;;;4.43;;
34019;SDS011;20895;51.034;3.742;2023-11-21T09:46:48;9.07;;;4.03;;
34019;SDS011;20895;51.034;3.742;2023-11-21T09:49:14;7.75;;;3.50;;
34019;SDS011;20895;51.034;3.742;2023-11-21T09:51:43;6.53;;;3.65;;
34019;SDS011;20895;51.034;3.742;2023-11-21T09:54:11;7.55;;;3.22;;
34019;SDS011;20895;51.034;3.742;2023-11-21T09:56:37;6.57;;;3.03;;
34019;SDS011;20895;51.034;3.742;2023-11-21T09:59:03;5.65;;;3.83;;
34019;SDS011;20895;51.034;3.742;2023-11-21T10:01:34;7.95;;;3.13;;
34019;SDS011;20895;51.034;3.742;2023-11-21T10:04:00;8.80;;;3.38;;
34019;SDS011;20895;51.034;3.742;2023-11-21T10:06:26;9.38;;;3.63;;
34019;SDS011;20895;51.034;3.742;2023-11-21T10:08:52;9.02;;;3.83;;
34019;SDS011;20895;51.034;3.742;2023-11-21T10:11:18;8.20;;;3.25;;
34019;SDS011;20895;51.034;3.742;2023-11-21T10:13:44;12.88;;;3.60;;
34019;SDS011;20895;51.034;3.742;2023-11-21T10:16:11;8.95;;;3.45;;
34019;SDS011;20895;51.034;3.742;2023-11-21T10:18:39;9.90;;;2.78;;
34019;SDS011;20895;51.034;3.742;2023-11-21T10:21:05;5.78;;;2.50;;
34019;SDS011;20895;51.034;3.742;2023-11-21T10:23:31;4.75;;;3.13;;
34019;SDS011;20895;51.034;3.742;2023-11-21T10:25:56;9.88;;;3.25;;
34019;SDS011;20895;51.034;3.742;2023-11-21T10:28:24;8.25;;;2.88;;
34019;SDS011;20895;51.034;3.742;2023-11-21T10:30:49;8.70;;;2.78;;
34019;SDS011;20895;51.034;3.742;2023-11-21T10:33:14;5.53;;;2.92;;
34019;SDS011;20895;51.034;3.742;2023-11-21T10:35:46;7.25;;;2.97;;
34019;SDS011;20895;51.034;3.742;2023-11-21T10:38:15;10.07;;;3.88;;
34019;SDS011;20895;51.034;3.742;2023-11-21T10:40:41;9.10;;;3.90;;
34019;SDS011;20895;51.034;3.742;2023-11-21T10:43:07;8.40;;;3.40;;
34019;SDS011;20895;51.034;3.742;2023-11-21T10:45:36;9.10;;;3.28;;
34019;SDS011;20895;51.034;3.742;2023-11-21T10:48:04;8.00;;;3.95;;
34019;SDS011;20895;51.034;3.742;2023-11-21T10:50:30;8.82;;;3.15;;
34019;SDS011;20895;51.034;3.742;2023-11-21T10:52:57;10.38;;;5.50;;
34019;SDS011;20895;51.034;3.742;2023-11-21T10:55:22;6.45;;;3.70;;
34019;SDS011;20895;51.034;3.742;2023-11-21T10:57:51;6.13;;;3.17;;
34019;SDS011;20895;51.034;3.742;2023-11-21T11:00:17;7.13;;;3.88;;
34019;SDS011;20895;51.034;3.742;2023-11-21T11:02:45;7.03;;;3.83;;
34019;SDS011;20895;51.034;3.742;2023-11-21T11:05:12;8.07;;;3.40;;
34019;SDS011;20895;51.034;3.742;2023-11-21T11:07:38;9.18;;;2.72;;
34019;SDS011;20895;51.034;3.742;2023-11-21T11:10:07;9.98;;;3.25;;
34019;SDS011;20895;51.034;3.742;2023-11-21T11:12:39;6.03;;;2.80;;
34019;SDS011;20895;51.034;3.742;2023-11-21T11:15:04;6.93;;;3.13;;
34019;SDS011;20895;51.034;3.742;2023-11-21T11:17:30;6.38;;;3.60;;
34019;SDS011;20895;51.034;3.742;2023-11-21T11:19:57;9.63;;;4.82;;
34019;SDS011;20895;51.034;3.742;2023-11-21T11:27:48;8.68;;;4.28;;
34019;SDS011;20895;51.034;3.742;2023-11-21T11:37:49;6.03;;;3.40;;
34019;SDS011;20895;51.034;3.742;2023-11-21T11:40:14;9.40;;;2.95;;
34019;SDS011;20895;51.034;3.742;2023-11-21T11:42:54;9.90;;;3.10;;
34019;SDS011;20895;51.034;3.742;2023-11-21T11:45:20;8.52;;;3.30;;
34019;SDS011;20895;51.034;3.742;2023-11-21T11:47:47;8.75;;;2.80;;
34019;SDS011;20895;51.034;3.742;2023-11-21T11:50:12;8.18;;;2.25;;
34019;SDS011;20895;51.034;3.742;2023-11-21T11:55:08;8.23;;;3.63;;
34019;SDS011;20895;51.034;3.742;2023-11-21T11:57:35;7.32;;;2.53;;
34019;SDS011;20895;51.034;3.742;2023-11-21T12:00:10;7.10;;;2.38;;
34019;SDS011;20895;51.034;3.742;2023-11-21T12:02:46;9.57;;;3.10;;
34019;SDS011;20895;51.034;3.742;2023-11-21T12:05:12;14.75;;;3.85;;
34019;SDS011;20895;51.034;3.742;2023-11-21T12:07:57;7.00;;;2.65;;
34019;SDS011;20895;51.034;3.742;2023-11-21T12:10:35;6.20;;;2.20;;
34019;SDS011;20895;51.034;3.742;2023-11-21T12:13:02;5.10;;;1.92;;
34019;SDS011;20895;51.034;3.742;2023-11-21T12:15:27;9.15;;;1.83;;
34019;SDS011;20895;51.034;3.742;2023-11-21T12:17:56;6.90;;;2.60;;
34019;SDS011;20895;51.034;3.742;2023-11-21T12:20:22;7.05;;;2.35;;
34019;SDS011;20895;51.034;3.742;2023-11-21T12:22:48;7.35;;;2.10;;
34019;SDS011;20895;51.034;3.742;2023-11-21T12:25:17;9.38;;;2.40;;
34019;SDS011;20895;51.034;3.742;2023-11-21T12:27:44;10.35;;;4.03;;
34019;SDS011;20895;51.034;3.742;2023-11-21T12:30:10;6.25;;;2.10;;
34019;SDS011;20895;51.034;3.742;2023-11-21T12:32:39;8.70;;;2.22;;
34019;SDS011;20895;51.034;3.742;2023-11-21T12:35:05;5.30;;;1.80;;
34019;SDS011;20895;51.034;3.742;2023-11-21T12:37:31;4.13;;;2.20;;
34019;SDS011;20895;51.034;3.742;2023-11-21T12:39:56;5.97;;;2.08;;
34019;SDS011;20895;51.034;3.742;2023-11-21T12:42:23;3.28;;;2.10;;
34019;SDS011;20895;51.034;3.742;2023-11-21T12:44:48;6.18;;;2.38;;
34019;SDS011;20895;51.034;3.742;2023-11-21T12:47:16;6.82;;;2.88;;
34019;SDS011;20895;51.034;3.742;2023-11-21T12:49:41;7.47;;;2.75;;
34019;SDS011;20895;51.034;3.742;2023-11-21T12:52:09;9.02;;;2.58;;
34019;SDS011;20895;51.034;3.742;2023-11-21T12:54:34;5.78;;;2.75;;
34019;SDS011;20895;51.034;3.742;2023-11-21T12:57:00;7.00;;;3.10;;
34019;SDS011;20895;51.034;3.742;2023-11-21T12:59:26;5.07;;;2.40;;
34019;SDS011;20895;51.034;3.742;2023-11-21T13:01:53;7.55;;;2.65;;
34019;SDS011;20895;51.034;3.742;2023-11-21T13:04:28;5.88;;;2.40;;
34019;SDS011;20895;51.034;3.742;2023-11-21T13:06:54;4.97;;;2.50;;
34019;SDS011;20895;51.034;3.742;2023-11-21T13:09:21;4.68;;;2.47;;
34019;SDS011;20895;51.034;3.742;2023-11-21T13:11:46;4.38;;;2.50;;
34019;SDS011;20895;51.034;3.742;2023-11-21T13:14:11;4.32;;;3.10;;
34019;SDS011;20895;51.034;3.742;2023-11-21T13:16:37;11.27;;;6.57;;
34019;SDS011;20895;51.034;3.742;2023-11-21T13:19:04;4.32;;;3.50;;
34019;SDS011;20895;51.034;3.742;2023-11-21T13:21:29;6.72;;;3.50;;
34019;SDS011;20895;51.034;3.742;2023-11-21T13:23:54;4.47;;;3.60;;
34019;SDS011;20895;51.034;3.742;2023-11-21T13:26:21;7.88;;;3.15;;
34019;SDS011;20895;51.034;3.742;2023-11-21T13:28:48;7.57;;;3.22;;
34019;SDS011;20895;51.034;3.742;2023-11-21T13:31:13;5.65;;;3.70;;
34019;SDS011;20895;51.034;3.742;2023-11-21T13:33:52;4.80;;;3.42;;
34019;SDS011;20895;51.034;3.742;2023-11-21T13:36:23;4.45;;;3.83;;
34019;SDS011;20895;51.034;3.742;2023-11-21T13:38:50;5.95;;;3.15;;
34019;SDS011;20895;51.034;3.742;2023-11-21T13:41:15;6.85;;;3.42;;
34019;SDS011;20895;51.034;3.742;2023-11-21T13:43:42;6.50;;;3.25;;
34019;SDS011;20895;51.034;3.742;2023-11-21T13:46:12;5.40;;;3.20;;
34019;SDS011;20895;51.034;3.742;2023-11-21T13:48:42;5.50;;;3.13;;
34019;SDS011;20895;51.034;3.742;2023-11-21T13:51:10;6.90;;;3.42;;
34019;SDS011;20895;51.034;3.742;2023-11-21T13:53:42;7.72;;;2.55;;
34019;SDS011;20895;51.034;3.742;2023-11-21T13:56:07;7.97;;;3.90;;
34019;SDS011;20895;51.034;3.742;2023-11-21T13:58:33;6.47;;;2.83;;
34019;SDS011;20895;51.034;3.742;2023-11-21T14:01:30;7.78;;;2.88;;
34019;SDS011;20895;51.034;3.742;2023-11-21T14:03:56;3.17;;;2.80;;
34019;SDS011;20895;51.034;3.742;2023-11-21T14:06:44;8.65;;;3.72;;
34019;SDS011;20895;51.034;3.742;2023-11-21T14:09:17;3.85;;;2.80;;
34019;SDS011;20895;51.034;3.742;2023-11-21T14:12:00;3.42;;;2.42;;
34019;SDS011;20895;51.034;3.742;2023-11-21T14:14:28;4.13;;;3.00;;
34019;SDS011;20895;51.034;3.742;2023-11-21T14:16:53;5.88;;;3.20;;
34019;SDS011;20895;51.034;3.742;2023-11-21T14:19:20;3.67;;;2.92;;
34019;SDS011;20895;51.034;3.742;2023-11-21T14:21:46;3.53;;;2.88;;
34019;SDS011;20895;51.034;3.742;2023-11-21T14:24:11;4.72;;;3.55;;
34019;SDS011;20895;51.034;3.742;2023-11-21T14:26:43;8.45;;;4.57;;
34019;SDS011;20895;51.034;3.742;2023-11-21T14:29:11;13.20;;;4.10;;
34019;SDS011;20895;51.034;3.742;2023-11-21T14:31:39;4.43;;;3.53;;
34019;SDS011;20895;51.034;3.742;2023-11-21T14:34:05;8.35;;;4.25;;
34019;SDS011;20895;51.034;3.742;2023-11-21T14:36:32;5.55;;;3.13;;
34019;SDS011;20895;51.034;3.742;2023-11-21T14:38:57;6.35;;;3.50;;
34019;SDS011;20895;51.034;3.742;2023-11-21T14:41:22;10.70;;;3.55;;